sensor_id;sensor_type;location;lat;lon;timestamp;temperature;humidity
22122;DHT22;11227;53.046;10.512;2022-08-21T00:02:31;20.10;36.40
22122;DHT22;11227;53.046;10.512;2022-08-21T00:06:33;20.10;35.50
22122;DHT22;11227;53.046;10.512;2022-08-21T00:10:35;20.10;34.90
22122;DHT22;11227;53.046;10.512;2022-08-21T00:14:37;20.10;34.20
22122;DHT22;11227;53.046;10.512;2022-08-21T00:18:39;20.10;33.30
22122;DHT22;11227;53.046;10.512;2022-08-21T00:22:40;20.10;33.00
22122;DHT22;11227;53.046;10.512;2022-08-21T00:26:42;20.10;33.20
22122;DHT22;11227;53.046;10.512;2022-08-21T00:30:44;20.10;32.90
22122;DHT22;11227;53.046;10.512;2022-08-21T00:34:46;20.10;32.50
22122;DHT22;11227;53.046;10.512;2022-08-21T00:38:48;20.10;31.80
22122;DHT22;11227;53.046;10.512;2022-08-21T00:42:49;20.10;31.50
22122;DHT22;11227;53.046;10.512;2022-08-21T00:46:59;20.10;30.90
22122;DHT22;11227;53.046;10.512;2022-08-21T00:51:04;20.10;30.40
22122;DHT22;11227;53.046;10.512;2022-08-21T00:55:07;20.10;30.00
22122;DHT22;11227;53.046;10.512;2022-08-21T00:59:10;20.10;29.80
22122;DHT22;11227;53.046;10.512;2022-08-21T01:03:13;20.10;29.30
22122;DHT22;11227;53.046;10.512;2022-08-21T01:07:15;20.10;29.00
22122;DHT22;11227;53.046;10.512;2022-08-21T01:11:17;20.10;28.70
22122;DHT22;11227;53.046;10.512;2022-08-21T01:15:19;20.10;28.20
22122;DHT22;11227;53.046;10.512;2022-08-21T01:19:21;20.10;27.90
22122;DHT22;11227;53.046;10.512;2022-08-21T01:23:23;20.10;27.30
22122;DHT22;11227;53.046;10.512;2022-08-21T01:27:25;20.10;26.90
22122;DHT22;11227;53.046;10.512;2022-08-21T01:31:27;20.10;26.30
22122;DHT22;11227;53.046;10.512;2022-08-21T01:35:29;20.00;25.80
22122;DHT22;11227;53.046;10.512;2022-08-21T01:39:33;20.00;25.20
22122;DHT22;11227;53.046;10.512;2022-08-21T01:43:35;20.10;24.90
22122;DHT22;11227;53.046;10.512;2022-08-21T01:47:40;20.10;24.10
22122;DHT22;11227;53.046;10.512;2022-08-21T01:51:41;20.00;23.50
22122;DHT22;11227;53.046;10.512;2022-08-21T01:55:43;20.10;22.80
22122;DHT22;11227;53.046;10.512;2022-08-21T01:59:45;20.00;22.00
22122;DHT22;11227;53.046;10.512;2022-08-21T02:03:46;20.00;22.90
22122;DHT22;11227;53.046;10.512;2022-08-21T02:07:49;20.00;20.60
22122;DHT22;11227;53.046;10.512;2022-08-21T02:11:51;20.00;19.60
22122;DHT22;11227;53.046;10.512;2022-08-21T02:15:53;20.00;18.90
22122;DHT22;11227;53.046;10.512;2022-08-21T02:19:54;20.00;18.20
22122;DHT22;11227;53.046;10.512;2022-08-21T02:23:56;20.00;17.30
22122;DHT22;11227;53.046;10.512;2022-08-21T02:27:58;20.00;16.50
22122;DHT22;11227;53.046;10.512;2022-08-21T02:32:00;20.00;15.90
22122;DHT22;11227;53.046;10.512;2022-08-21T02:36:03;20.00;15.10
22122;DHT22;11227;53.046;10.512;2022-08-21T02:40:05;20.00;14.50
22122;DHT22;11227;53.046;10.512;2022-08-21T02:44:07;20.00;13.80
22122;DHT22;11227;53.046;10.512;2022-08-21T02:48:10;20.00;13.40
22122;DHT22;11227;53.046;10.512;2022-08-21T02:52:12;20.00;12.80
22122;DHT22;11227;53.046;10.512;2022-08-21T02:56:16;20.00;12.20
22122;DHT22;11227;53.046;10.512;2022-08-21T03:00:19;20.00;11.50
22122;DHT22;11227;53.046;10.512;2022-08-21T03:04:21;20.00;10.90
22122;DHT22;11227;53.046;10.512;2022-08-21T03:08:23;20.00;10.10
22122;DHT22;11227;53.046;10.512;2022-08-21T03:12:28;20.00;9.50
22122;DHT22;11227;53.046;10.512;2022-08-21T03:16:30;20.00;8.80
22122;DHT22;11227;53.046;10.512;2022-08-21T03:20:36;20.00;8.00
22122;DHT22;11227;53.046;10.512;2022-08-21T03:24:38;20.00;7.30
22122;DHT22;11227;53.046;10.512;2022-08-21T03:28:43;20.00;8.10
22122;DHT22;11227;53.046;10.512;2022-08-21T03:32:45;20.00;5.80
22122;DHT22;11227;53.046;10.512;2022-08-21T03:36:47;20.00;5.30
22122;DHT22;11227;53.046;10.512;2022-08-21T03:40:50;20.00;4.70
22122;DHT22;11227;53.046;10.512;2022-08-21T03:44:51;20.00;4.00
22122;DHT22;11227;53.046;10.512;2022-08-21T03:48:53;20.00;3.50
22122;DHT22;11227;53.046;10.512;2022-08-21T03:52:55;20.00;3.00
22122;DHT22;11227;53.046;10.512;2022-08-21T03:56:56;20.00;2.40
22122;DHT22;11227;53.046;10.512;2022-08-21T04:00:59;20.00;2.10
22122;DHT22;11227;53.046;10.512;2022-08-21T04:05:01;20.00;1.60
22122;DHT22;11227;53.046;10.512;2022-08-21T04:09:02;20.00;1.20
22122;DHT22;11227;53.046;10.512;2022-08-21T04:13:04;20.00;1.00
22122;DHT22;11227;53.046;10.512;2022-08-21T04:17:06;20.00;1.00
22122;DHT22;11227;53.046;10.512;2022-08-21T04:21:09;20.00;1.00
22122;DHT22;11227;53.046;10.512;2022-08-21T04:25:16;20.00;1.00
22122;DHT22;11227;53.046;10.512;2022-08-21T04:29:18;20.00;1.00
22122;DHT22;11227;53.046;10.512;2022-08-21T04:33:21;20.00;1.00
22122;DHT22;11227;53.046;10.512;2022-08-21T04:37:22;20.00;1.00
22122;DHT22;11227;53.046;10.512;2022-08-21T04:41:24;20.00;1.00
22122;DHT22;11227;53.046;10.512;2022-08-21T04:45:30;20.00;1.00
22122;DHT22;11227;53.046;10.512;2022-08-21T04:49:31;20.00;1.00
22122;DHT22;11227;53.046;10.512;2022-08-21T04:57:39;20.00;1.00
22122;DHT22;11227;53.046;10.512;2022-08-21T05:01:49;20.00;1.00
22122;DHT22;11227;53.046;10.512;2022-08-21T05:05:52;20.00;1.00
22122;DHT22;11227;53.046;10.512;2022-08-21T05:09:53;20.00;1.00
22122;DHT22;11227;53.046;10.512;2022-08-21T05:13:55;20.00;1.00
22122;DHT22;11227;53.046;10.512;2022-08-21T05:17:57;20.00;1.00
22122;DHT22;11227;53.046;10.512;2022-08-21T05:22:02;20.00;1.00
22122;DHT22;11227;53.046;10.512;2022-08-21T05:26:04;20.00;1.00
22122;DHT22;11227;53.046;10.512;2022-08-21T05:30:06;19.90;1.00
22122;DHT22;11227;53.046;10.512;2022-08-21T05:34:09;20.00;1.00
22122;DHT22;11227;53.046;10.512;2022-08-21T05:38:10;19.90;1.00
22122;DHT22;11227;53.046;10.512;2022-08-21T05:42:18;19.90;1.00
22122;DHT22;11227;53.046;10.512;2022-08-21T05:46:20;19.90;1.00
22122;DHT22;11227;53.046;10.512;2022-08-21T05:50:21;19.90;1.00
22122;DHT22;11227;53.046;10.512;2022-08-21T05:54:29;19.90;1.00
22122;DHT22;11227;53.046;10.512;2022-08-21T05:58:32;19.90;1.00
22122;DHT22;11227;53.046;10.512;2022-08-21T06:02:34;19.90;1.00
22122;DHT22;11227;53.046;10.512;2022-08-21T06:06:35;19.90;1.00
22122;DHT22;11227;53.046;10.512;2022-08-21T06:10:37;19.90;1.00
22122;DHT22;11227;53.046;10.512;2022-08-21T06:14:39;19.90;1.00
22122;DHT22;11227;53.046;10.512;2022-08-21T06:18:41;19.90;1.00
22122;DHT22;11227;53.046;10.512;2022-08-21T06:22:44;19.90;1.00
22122;DHT22;11227;53.046;10.512;2022-08-21T06:26:45;19.90;1.00
22122;DHT22;11227;53.046;10.512;2022-08-21T06:30:47;19.90;1.00
22122;DHT22;11227;53.046;10.512;2022-08-21T06:34:49;19.90;1.00
22122;DHT22;11227;53.046;10.512;2022-08-21T06:38:50;19.90;1.00
22122;DHT22;11227;53.046;10.512;2022-08-21T06:42:52;19.90;1.00
22122;DHT22;11227;53.046;10.512;2022-08-21T06:46:54;19.90;1.00
22122;DHT22;11227;53.046;10.512;2022-08-21T06:50:56;19.90;1.00
22122;DHT22;11227;53.046;10.512;2022-08-21T06:54:58;19.90;1.00
22122;DHT22;11227;53.046;10.512;2022-08-21T06:59:00;19.90;1.00
22122;DHT22;11227;53.046;10.512;2022-08-21T07:03:01;19.90;1.00
22122;DHT22;11227;53.046;10.512;2022-08-21T07:07:03;19.90;1.00
22122;DHT22;11227;53.046;10.512;2022-08-21T07:11:07;19.90;1.00
22122;DHT22;11227;53.046;10.512;2022-08-21T07:15:10;19.90;1.00
22122;DHT22;11227;53.046;10.512;2022-08-21T07:19:12;19.90;1.00
22122;DHT22;11227;53.046;10.512;2022-08-21T07:23:26;19.90;1.00
22122;DHT22;11227;53.046;10.512;2022-08-21T07:27:29;19.90;1.00
22122;DHT22;11227;53.046;10.512;2022-08-21T07:31:30;19.90;1.00
22122;DHT22;11227;53.046;10.512;2022-08-21T07:35:32;19.90;1.00
22122;DHT22;11227;53.046;10.512;2022-08-21T07:39:34;19.90;1.00
22122;DHT22;11227;53.046;10.512;2022-08-21T07:43:36;19.90;1.00
22122;DHT22;11227;53.046;10.512;2022-08-21T07:47:47;19.90;1.00
22122;DHT22;11227;53.046;10.512;2022-08-21T07:51:48;19.90;1.00
22122;DHT22;11227;53.046;10.512;2022-08-21T07:55:51;19.90;1.00
22122;DHT22;11227;53.046;10.512;2022-08-21T07:59:52;19.90;1.00
22122;DHT22;11227;53.046;10.512;2022-08-21T08:03:54;19.90;1.00
22122;DHT22;11227;53.046;10.512;2022-08-21T08:07:56;19.90;1.00
22122;DHT22;11227;53.046;10.512;2022-08-21T08:11:58;19.90;1.00
22122;DHT22;11227;53.046;10.512;2022-08-21T08:15:59;19.90;1.00
22122;DHT22;11227;53.046;10.512;2022-08-21T08:20:01;19.90;1.00
22122;DHT22;11227;53.046;10.512;2022-08-21T08:24:03;19.90;1.00
22122;DHT22;11227;53.046;10.512;2022-08-21T08:28:20;19.90;1.00
22122;DHT22;11227;53.046;10.512;2022-08-21T08:32:23;19.90;1.00
22122;DHT22;11227;53.046;10.512;2022-08-21T08:36:30;19.90;1.00
22122;DHT22;11227;53.046;10.512;2022-08-21T08:40:39;19.90;1.00
22122;DHT22;11227;53.046;10.512;2022-08-21T08:44:44;19.90;1.00
22122;DHT22;11227;53.046;10.512;2022-08-21T08:48:53;19.90;1.00
22122;DHT22;11227;53.046;10.512;2022-08-21T08:52:58;19.90;1.00
22122;DHT22;11227;53.046;10.512;2022-08-21T08:57:02;19.90;1.00
22122;DHT22;11227;53.046;10.512;2022-08-21T09:01:09;19.90;1.00
22122;DHT22;11227;53.046;10.512;2022-08-21T09:05:19;19.90;1.00
22122;DHT22;11227;53.046;10.512;2022-08-21T09:09:29;19.90;1.00
22122;DHT22;11227;53.046;10.512;2022-08-21T09:22:09;19.90;1.00
22122;DHT22;11227;53.046;10.512;2022-08-21T09:26:15;19.90;1.00
22122;DHT22;11227;53.046;10.512;2022-08-21T09:30:18;19.90;1.00
22122;DHT22;11227;53.046;10.512;2022-08-21T09:34:24;19.90;1.00
22122;DHT22;11227;53.046;10.512;2022-08-21T09:38:28;20.00;1.00
22122;DHT22;11227;53.046;10.512;2022-08-21T09:42:30;20.00;1.00
22122;DHT22;11227;53.046;10.512;2022-08-21T09:46:35;20.00;1.00
22122;DHT22;11227;53.046;10.512;2022-08-21T09:50:38;20.00;1.00
22122;DHT22;11227;53.046;10.512;2022-08-21T09:54:39;20.00;1.00
22122;DHT22;11227;53.046;10.512;2022-08-21T09:58:42;20.00;1.00
22122;DHT22;11227;53.046;10.512;2022-08-21T10:02:46;20.00;1.00
22122;DHT22;11227;53.046;10.512;2022-08-21T10:06:47;20.00;1.00
22122;DHT22;11227;53.046;10.512;2022-08-21T10:10:54;20.00;1.00
22122;DHT22;11227;53.046;10.512;2022-08-21T10:23:29;20.00;1.00
22122;DHT22;11227;53.046;10.512;2022-08-21T10:36:01;20.00;1.00
22122;DHT22;11227;53.046;10.512;2022-08-21T10:40:09;20.00;1.00
22122;DHT22;11227;53.046;10.512;2022-08-21T10:48:46;20.00;1.00
22122;DHT22;11227;53.046;10.512;2022-08-21T10:56:56;20.00;1.00
22122;DHT22;11227;53.046;10.512;2022-08-21T11:01:10;20.00;1.00
22122;DHT22;11227;53.046;10.512;2022-08-21T11:05:21;20.00;1.00
22122;DHT22;11227;53.046;10.512;2022-08-21T11:09:25;20.00;1.00
22122;DHT22;11227;53.046;10.512;2022-08-21T11:13:30;20.00;1.00
22122;DHT22;11227;53.046;10.512;2022-08-21T11:17:34;20.00;1.00
22122;DHT22;11227;53.046;10.512;2022-08-21T11:21:39;20.00;1.00
22122;DHT22;11227;53.046;10.512;2022-08-21T11:25:53;20.00;1.00
22122;DHT22;11227;53.046;10.512;2022-08-21T11:29:59;20.00;1.00
22122;DHT22;11227;53.046;10.512;2022-08-21T11:34:05;20.00;1.00
22122;DHT22;11227;53.046;10.512;2022-08-21T11:38:27;20.00;1.00
22122;DHT22;11227;53.046;10.512;2022-08-21T11:42:35;19.90;1.00
22122;DHT22;11227;53.046;10.512;2022-08-21T11:50:50;20.00;1.00
22122;DHT22;11227;53.046;10.512;2022-08-21T11:59:11;20.00;1.00
22122;DHT22;11227;53.046;10.512;2022-08-21T12:03:17;19.90;1.00
22122;DHT22;11227;53.046;10.512;2022-08-21T12:07:31;20.00;1.00
22122;DHT22;11227;53.046;10.512;2022-08-21T12:11:43;19.90;1.00
22122;DHT22;11227;53.046;10.512;2022-08-21T12:15:46;19.90;1.00
22122;DHT22;11227;53.046;10.512;2022-08-21T12:19:58;19.90;1.00
22122;DHT22;11227;53.046;10.512;2022-08-21T12:24:04;19.90;1.00
22122;DHT22;11227;53.046;10.512;2022-08-21T12:28:07;19.90;1.00
22122;DHT22;11227;53.046;10.512;2022-08-21T12:36:12;20.00;1.00
22122;DHT22;11227;53.046;10.512;2022-08-21T12:40:22;19.90;1.00
22122;DHT22;11227;53.046;10.512;2022-08-21T12:44:28;20.00;1.00
22122;DHT22;11227;53.046;10.512;2022-08-21T12:48:35;19.90;1.00
22122;DHT22;11227;53.046;10.512;2022-08-21T12:52:41;19.90;1.00
22122;DHT22;11227;53.046;10.512;2022-08-21T12:56:54;19.90;1.00
22122;DHT22;11227;53.046;10.512;2022-08-21T13:01:01;19.90;1.00
22122;DHT22;11227;53.046;10.512;2022-08-21T13:05:05;19.90;1.00
22122;DHT22;11227;53.046;10.512;2022-08-21T13:09:12;19.90;1.00
22122;DHT22;11227;53.046;10.512;2022-08-21T13:13:22;19.90;1.00
22122;DHT22;11227;53.046;10.512;2022-08-21T13:17:30;19.90;1.00
22122;DHT22;11227;53.046;10.512;2022-08-21T13:21:33;20.00;1.00
22122;DHT22;11227;53.046;10.512;2022-08-21T13:25:36;20.00;1.00
22122;DHT22;11227;53.046;10.512;2022-08-21T13:29:38;19.90;1.00
22122;DHT22;11227;53.046;10.512;2022-08-21T13:33:39;20.00;1.00
22122;DHT22;11227;53.046;10.512;2022-08-21T13:37:42;20.00;1.00
22122;DHT22;11227;53.046;10.512;2022-08-21T13:41:46;20.00;1.00
22122;DHT22;11227;53.046;10.512;2022-08-21T13:45:49;20.00;1.00
22122;DHT22;11227;53.046;10.512;2022-08-21T13:49:51;20.00;1.00
22122;DHT22;11227;53.046;10.512;2022-08-21T13:53:59;20.00;1.00
22122;DHT22;11227;53.046;10.512;2022-08-21T13:58:02;20.00;1.00
22122;DHT22;11227;53.046;10.512;2022-08-21T14:02:13;20.00;1.00
22122;DHT22;11227;53.046;10.512;2022-08-21T14:06:23;20.00;1.00
22122;DHT22;11227;53.046;10.512;2022-08-21T14:10:25;20.00;1.00
22122;DHT22;11227;53.046;10.512;2022-08-21T14:14:31;20.00;1.00
22122;DHT22;11227;53.046;10.512;2022-08-21T14:18:34;20.00;1.00
22122;DHT22;11227;53.046;10.512;2022-08-21T14:22:48;20.00;1.00
22122;DHT22;11227;53.046;10.512;2022-08-21T14:26:50;20.00;1.00
22122;DHT22;11227;53.046;10.512;2022-08-21T14:30:54;20.00;1.00
22122;DHT22;11227;53.046;10.512;2022-08-21T14:34:56;20.00;1.00
22122;DHT22;11227;53.046;10.512;2022-08-21T14:38:59;20.00;1.00
22122;DHT22;11227;53.046;10.512;2022-08-21T14:43:02;20.00;1.00
22122;DHT22;11227;53.046;10.512;2022-08-21T14:47:04;20.00;1.00
22122;DHT22;11227;53.046;10.512;2022-08-21T14:51:06;20.00;1.00
22122;DHT22;11227;53.046;10.512;2022-08-21T14:55:07;20.00;1.00
22122;DHT22;11227;53.046;10.512;2022-08-21T14:59:12;20.00;1.00
22122;DHT22;11227;53.046;10.512;2022-08-21T15:03:13;20.00;1.00
22122;DHT22;11227;53.046;10.512;2022-08-21T15:07:15;20.00;1.00
22122;DHT22;11227;53.046;10.512;2022-08-21T15:11:18;20.00;1.00
22122;DHT22;11227;53.046;10.512;2022-08-21T15:15:41;20.00;1.00
22122;DHT22;11227;53.046;10.512;2022-08-21T15:19:43;20.00;1.00
22122;DHT22;11227;53.046;10.512;2022-08-21T15:23:45;20.00;1.00
22122;DHT22;11227;53.046;10.512;2022-08-21T15:27:46;20.00;1.00
22122;DHT22;11227;53.046;10.512;2022-08-21T15:31:56;20.00;1.00
22122;DHT22;11227;53.046;10.512;2022-08-21T15:35:57;20.00;1.00
22122;DHT22;11227;53.046;10.512;2022-08-21T15:39:59;20.00;1.00
22122;DHT22;11227;53.046;10.512;2022-08-21T15:44:01;20.00;1.00
22122;DHT22;11227;53.046;10.512;2022-08-21T15:48:03;20.00;1.00
22122;DHT22;11227;53.046;10.512;2022-08-21T15:52:18;20.00;1.00
22122;DHT22;11227;53.046;10.512;2022-08-21T15:56:28;20.00;1.00
22122;DHT22;11227;53.046;10.512;2022-08-21T16:00:35;20.00;1.00
22122;DHT22;11227;53.046;10.512;2022-08-21T16:04:37;20.00;1.00
22122;DHT22;11227;53.046;10.512;2022-08-21T16:08:39;20.00;1.00
22122;DHT22;11227;53.046;10.512;2022-08-21T16:12:45;20.00;1.00
22122;DHT22;11227;53.046;10.512;2022-08-21T16:16:50;20.00;1.00
22122;DHT22;11227;53.046;10.512;2022-08-21T16:20:52;20.00;1.00
22122;DHT22;11227;53.046;10.512;2022-08-21T16:24:54;20.00;1.00
22122;DHT22;11227;53.046;10.512;2022-08-21T16:28:56;19.90;1.00
22122;DHT22;11227;53.046;10.512;2022-08-21T16:33:01;20.00;1.00
22122;DHT22;11227;53.046;10.512;2022-08-21T16:37:03;20.00;1.00
22122;DHT22;11227;53.046;10.512;2022-08-21T16:41:06;20.00;1.00
22122;DHT22;11227;53.046;10.512;2022-08-21T16:45:09;20.00;1.00
22122;DHT22;11227;53.046;10.512;2022-08-21T16:49:11;20.00;1.00
22122;DHT22;11227;53.046;10.512;2022-08-21T16:53:13;20.00;1.00
22122;DHT22;11227;53.046;10.512;2022-08-21T16:57:15;20.00;1.00
22122;DHT22;11227;53.046;10.512;2022-08-21T17:01:18;20.00;1.00
22122;DHT22;11227;53.046;10.512;2022-08-21T17:05:20;20.00;1.00
22122;DHT22;11227;53.046;10.512;2022-08-21T17:09:22;20.00;1.00
22122;DHT22;11227;53.046;10.512;2022-08-21T17:13:24;20.00;1.00
22122;DHT22;11227;53.046;10.512;2022-08-21T17:17:26;20.00;1.00
22122;DHT22;11227;53.046;10.512;2022-08-21T17:21:28;20.00;1.00
22122;DHT22;11227;53.046;10.512;2022-08-21T17:25:29;20.00;1.00
22122;DHT22;11227;53.046;10.512;2022-08-21T17:29:33;20.00;1.00
22122;DHT22;11227;53.046;10.512;2022-08-21T17:33:36;20.00;1.00
22122;DHT22;11227;53.046;10.512;2022-08-21T17:37:39;20.00;1.00
22122;DHT22;11227;53.046;10.512;2022-08-21T17:41:41;20.00;1.00
22122;DHT22;11227;53.046;10.512;2022-08-21T17:45:43;20.00;1.00
22122;DHT22;11227;53.046;10.512;2022-08-21T17:49:45;20.00;1.00
22122;DHT22;11227;53.046;10.512;2022-08-21T17:53:46;20.00;1.00
22122;DHT22;11227;53.046;10.512;2022-08-21T17:57:48;20.00;1.00
22122;DHT22;11227;53.046;10.512;2022-08-21T18:01:50;20.00;1.00
22122;DHT22;11227;53.046;10.512;2022-08-21T18:05:52;20.00;1.00
22122;DHT22;11227;53.046;10.512;2022-08-21T18:09:57;20.00;1.00
22122;DHT22;11227;53.046;10.512;2022-08-21T18:13:59;20.00;1.00
22122;DHT22;11227;53.046;10.512;2022-08-21T18:18:07;20.00;1.00
22122;DHT22;11227;53.046;10.512;2022-08-21T18:22:09;20.00;1.00
22122;DHT22;11227;53.046;10.512;2022-08-21T18:26:12;20.00;1.00
22122;DHT22;11227;53.046;10.512;2022-08-21T18:30:16;20.00;1.00
22122;DHT22;11227;53.046;10.512;2022-08-21T18:34:21;20.10;1.00
22122;DHT22;11227;53.046;10.512;2022-08-21T18:38:23;20.00;1.00
22122;DHT22;11227;53.046;10.512;2022-08-21T18:42:25;20.10;1.00
22122;DHT22;11227;53.046;10.512;2022-08-21T18:46:29;20.00;1.00
22122;DHT22;11227;53.046;10.512;2022-08-21T18:50:32;20.00;1.00
22122;DHT22;11227;53.046;10.512;2022-08-21T18:54:34;20.00;1.00
22122;DHT22;11227;53.046;10.512;2022-08-21T18:58:37;20.00;1.00
22122;DHT22;11227;53.046;10.512;2022-08-21T19:02:39;20.00;1.00
22122;DHT22;11227;53.046;10.512;2022-08-21T19:06:44;20.10;1.00
22122;DHT22;11227;53.046;10.512;2022-08-21T19:10:47;20.00;1.00
22122;DHT22;11227;53.046;10.512;2022-08-21T19:14:49;20.00;1.00
22122;DHT22;11227;53.046;10.512;2022-08-21T19:18:53;20.10;1.00
22122;DHT22;11227;53.046;10.512;2022-08-21T19:22:58;20.00;1.00
22122;DHT22;11227;53.046;10.512;2022-08-21T19:27:01;20.00;1.00
22122;DHT22;11227;53.046;10.512;2022-08-21T19:31:06;20.10;1.00
22122;DHT22;11227;53.046;10.512;2022-08-21T19:35:30;20.00;1.00
22122;DHT22;11227;53.046;10.512;2022-08-21T19:39:31;20.00;1.00
22122;DHT22;11227;53.046;10.512;2022-08-21T19:43:44;20.00;1.00
22122;DHT22;11227;53.046;10.512;2022-08-21T19:47:47;20.00;1.00
22122;DHT22;11227;53.046;10.512;2022-08-21T19:51:49;20.00;1.00
22122;DHT22;11227;53.046;10.512;2022-08-21T19:55:51;20.00;1.00
22122;DHT22;11227;53.046;10.512;2022-08-21T19:59:53;20.00;1.00
22122;DHT22;11227;53.046;10.512;2022-08-21T20:03:55;20.00;1.00
22122;DHT22;11227;53.046;10.512;2022-08-21T20:07:57;20.00;1.00
22122;DHT22;11227;53.046;10.512;2022-08-21T20:12:00;20.00;1.00
22122;DHT22;11227;53.046;10.512;2022-08-21T20:16:11;20.00;1.00
22122;DHT22;11227;53.046;10.512;2022-08-21T20:20:13;20.00;1.00
22122;DHT22;11227;53.046;10.512;2022-08-21T20:24:15;20.00;1.00
22122;DHT22;11227;53.046;10.512;2022-08-21T20:28:17;20.00;1.00
22122;DHT22;11227;53.046;10.512;2022-08-21T20:32:22;19.90;1.00
22122;DHT22;11227;53.046;10.512;2022-08-21T20:36:23;19.90;1.00
22122;DHT22;11227;53.046;10.512;2022-08-21T20:40:25;20.00;1.00
22122;DHT22;11227;53.046;10.512;2022-08-21T20:44:47;19.90;1.00
22122;DHT22;11227;53.046;10.512;2022-08-21T20:48:49;19.90;1.00
22122;DHT22;11227;53.046;10.512;2022-08-21T20:52:51;19.90;1.00
22122;DHT22;11227;53.046;10.512;2022-08-21T20:57:03;19.90;1.00
22122;DHT22;11227;53.046;10.512;2022-08-21T21:01:14;19.90;1.00
22122;DHT22;11227;53.046;10.512;2022-08-21T21:05:19;19.90;1.00
22122;DHT22;11227;53.046;10.512;2022-08-21T21:09:26;19.90;1.00
22122;DHT22;11227;53.046;10.512;2022-08-21T21:13:37;19.90;1.00
22122;DHT22;11227;53.046;10.512;2022-08-21T21:17:49;19.90;1.00
22122;DHT22;11227;53.046;10.512;2022-08-21T21:21:55;19.80;1.00
22122;DHT22;11227;53.046;10.512;2022-08-21T21:26:02;19.90;1.00
22122;DHT22;11227;53.046;10.512;2022-08-21T21:30:19;19.80;1.00
22122;DHT22;11227;53.046;10.512;2022-08-21T21:34:42;19.80;1.00
22122;DHT22;11227;53.046;10.512;2022-08-21T21:38:49;19.80;1.00
22122;DHT22;11227;53.046;10.512;2022-08-21T21:51:28;19.80;1.00
22122;DHT22;11227;53.046;10.512;2022-08-21T21:55:41;19.80;1.00
22122;DHT22;11227;53.046;10.512;2022-08-21T21:59:49;19.80;1.00
22122;DHT22;11227;53.046;10.512;2022-08-21T22:04:01;19.80;1.00
22122;DHT22;11227;53.046;10.512;2022-08-21T22:08:06;19.80;1.00
22122;DHT22;11227;53.046;10.512;2022-08-21T22:16:15;19.80;1.00
22122;DHT22;11227;53.046;10.512;2022-08-21T22:20:23;19.80;1.00
22122;DHT22;11227;53.046;10.512;2022-08-21T22:24:38;19.80;1.00
22122;DHT22;11227;53.046;10.512;2022-08-21T22:28:44;19.80;1.00
22122;DHT22;11227;53.046;10.512;2022-08-21T22:32:48;19.80;1.00
22122;DHT22;11227;53.046;10.512;2022-08-21T22:36:55;19.80;1.00
22122;DHT22;11227;53.046;10.512;2022-08-21T22:41:11;19.80;1.00
22122;DHT22;11227;53.046;10.512;2022-08-21T22:45:13;19.80;1.00
22122;DHT22;11227;53.046;10.512;2022-08-21T22:53:33;19.80;1.00
22122;DHT22;11227;53.046;10.512;2022-08-21T22:57:37;19.70;1.00
22122;DHT22;11227;53.046;10.512;2022-08-21T23:01:40;19.70;1.00
22122;DHT22;11227;53.046;10.512;2022-08-21T23:05:44;19.70;1.00
22122;DHT22;11227;53.046;10.512;2022-08-21T23:09:46;19.70;1.00
22122;DHT22;11227;53.046;10.512;2022-08-21T23:13:51;19.70;1.00
22122;DHT22;11227;53.046;10.512;2022-08-21T23:17:59;19.70;1.00
22122;DHT22;11227;53.046;10.512;2022-08-21T23:22:13;19.70;1.00
